• Join FlightAware (Why Join?)
  • Login
  • US Flag 
10:55PM EST


 

Airport Tracker/Info


-or-


 

Live Flight TrackerFlight Track Log ✈ FLG4208 ✈ 17-Apr-2013 ✈ KAZO - KDTW

Flight Track Log - Related Links

Times and Time Zones

All times are in EDT time to prevent confusion due to time zone crossing. See the FLG4208 flight status page for this flight to view local times or setup timezone preferences in your user account.

Time Position Orientation Groundspeed Altitude Reporting Facility
EDT Latitude Longitude Course Direction KTS MPH feet Rate Location/Type
11:55AM 42.1525 -85.5400 175° South 193 222 4,600  Level Chicago Center
11:56AM 42.1192 -85.4661 121° Southeast 257 296 7,000 2,280 Climbing Chicago Center
11:57AM 42.1556 -85.1982 106° East  Level FlightAware Approximate
11:57AM 42.1131 -85.3508 94° East 279 321 9,400  Level Cleveland Center
11:58AM 42.1366 -85.1092 106° East  Level FlightAware Approximate
11:58AM 42.1056 -85.2325 95° East 297 342 11,400  Level Cleveland Center
11:59AM 42.1175 -85.0203 106° East  Level FlightAware Approximate
11:59AM 42.0917 -85.1056 98° East 324 373 12,100  Level Cleveland Center
12:00PM 42.0806 -84.9619 96° East 358 412 12,000 -60 Descending Cleveland Center
12:01PM 42.0694 -84.8158 96° East 380 437 12,000  Level Cleveland Center
12:02PM 42.0222 -84.6839 116° Southeast 386 444 12,000  Level Cleveland Center
12:03PM 41.9594 -84.5711 127° Southeast 380 437 12,000  Level Cleveland Center
12:04PM 41.9086 -84.4731 125° Southeast 354 407 12,000  Level Cleveland Center
12:05PM 41.8514 -84.3719 127° Southeast 342 394 12,000  Level Cleveland Center
12:05PM 41.8386 -84.3153 107° East 341 392 12,000  Level Cleveland Center
12:06PM 41.8342 -84.2622 96° East 325 374 12,000 60 Level Cleveland Center
12:07PM 41.8328 -84.1728 91° East 341 392 12,100 60 Climbing Cleveland Center
12:07PM 41.8278 -84.1336 100° East 325 374 12,100  Level Cleveland Center
12:08PM 41.8306 -84.0472 88° East 341 392 12,100 -240 Level Cleveland Center
12:08PM 41.8378 -84.0114 75° East 330 380 11,900 -1,380 Descending Cleveland Center
12:09PM 41.8753 -83.9464 52° Northeast 311 358 10,700 -1,500 Descending Cleveland Center
12:09PM 41.8844 -83.9136 69° East 312 359 10,400 -1,440 Descending Cleveland Center
12:10PM 41.9097 -83.8367 66° East 305 351 9,300 -1,440 Descending Cleveland Center
12:10PM 41.9167 -83.8092 71° East 302 348 9,000 -1,380 Descending Cleveland Center
12:11PM 41.9436 -83.7378 63° Northeast 297 342 7,900 -1,440 Descending Cleveland Center
12:11PM 41.9486 -83.7075 77° East 302 348 7,600 -1,140 Descending Cleveland Center
12:12PM 41.9444 -83.6317 94° East 242 278 6,800 -1,020 Descending Cleveland Center
12:12PM 41.9469 -83.6125 80° East 276 318 6,600 -1,020 Descending Cleveland Center
12:13PM 41.9692 -83.5603 60° Northeast 212 244 5,900 -840 Descending Cleveland Center
12:13PM 41.9842 -83.5444 38° Northeast 237 273 5,800 -420 Descending Cleveland Center
12:14PM 42.0161 -83.5233 26° Northeast 196 226 5,500 -540 Descending Cleveland Center
12:14PM 42.0289 -83.5100 38° Northeast 184 212 5,300 -1,320 Descending Cleveland Center
12:15PM 42.0628 -83.4892 25° Northeast 179 206 4,200 -1,740 Descending Cleveland Center
12:15PM 42.0778 -83.4758 33° Northeast 184 212 3,600 -1,440 Descending Cleveland Center